Time;durP1;ratioP1;P1;durP2;ratioP2;P2;SDS_P1;SDS_P2;PMS_P1;PMS_P2;Temp;Humidity;BMP_temperature;BMP_pressure;BME280_temperature;BME280_humidity;BME280_pressure;Samples;Min_cycle;Max_cycle;Signal;HPM_P1;HPM_P2
2022/05/10 00:00:01;;;;;;;9.43;8.43;;;21.00;54.50;;;;;;7387622;19;20019;-76
2022/05/10 00:02:33;;;;;;;15.73;9.23;;;21.00;54.70;;;;;;7369207;19;20098;-76
2022/05/10 00:05:03;;;;;;;10.77;9.23;;;20.90;54.70;;;;;;7369872;19;20085;-75
2022/05/10 00:07:35;;;;;;;9.80;7.90;;;20.90;54.90;;;;;;7369933;19;20010;-76
2022/05/10 00:10:07;;;;;;;10.50;7.45;;;20.80;54.80;;;;;;7367703;19;20018;-76
2022/05/10 00:12:35;;;;;;;11.30;8.00;;;20.90;54.70;;;;;;7369649;19;20074;-77
2022/05/10 00:15:08;;;;;;;9.57;7.63;;;20.90;54.50;;;;;;7388609;19;20085;-76
2022/05/10 00:17:40;;;;;;;10.43;7.32;;;20.90;54.60;;;;;;7366781;19;20013;-76
2022/05/10 00:20:12;;;;;;;9.07;7.07;;;20.90;54.60;;;;;;7369152;19;20010;-76
2022/05/10 00:22:41;;;;;;;12.05;7.65;;;20.90;54.70;;;;;;7368491;19;20479;-75
2022/05/10 00:25:13;;;;;;;14.27;8.13;;;20.90;54.70;;;;;;7369834;19;20017;-75
2022/05/10 00:27:41;;;;;;;10.65;7.63;;;20.90;54.60;;;;;;7366211;19;20463;-75
2022/05/10 00:30:14;;;;;;;9.80;7.22;;;21.00;54.60;;;;;;7390386;19;20089;-75
2022/05/10 00:32:43;;;;;;;12.60;8.02;;;20.90;54.40;;;;;;7368127;19;20018;-76
2022/05/10 00:35:16;;;;;;;11.93;7.72;;;21.00;54.30;;;;;;7369810;19;20470;-77
2022/05/10 00:37:46;;;;;;;10.52;7.30;;;20.90;54.30;;;;;;7370168;19;20024;-75
2022/05/10 00:40:17;;;;;;;13.43;8.07;;;20.90;54.40;;;;;;7369690;19;20014;-75
2022/05/10 00:42:54;;;;;;;9.95;7.85;;;20.90;54.50;;;;;;7369500;19;20019;-75
2022/05/10 00:45:30;;;;;;;12.30;7.90;;;20.90;54.60;;;;;;7389216;19;20413;-76
2022/05/10 00:48:07;;;;;;;9.05;7.63;;;20.80;54.70;;;;;;7368015;19;20018;-75
2022/05/10 00:50:44;;;;;;;10.00;8.05;;;20.80;54.70;;;;;;7367127;19;20017;-75
2022/05/10 00:53:20;;;;;;;12.48;8.05;;;20.80;54.70;;;;;;7366903;19;20581;-77
2022/05/10 00:55:59;;;;;;;10.10;8.25;;;20.80;54.80;;;;;;7368075;19;20007;-76
2022/05/10 00:58:44;;;;;;;11.00;7.35;;;20.80;54.80;;;;;;7367129;19;20014;-76
2022/05/10 01:01:18;;;;;;;12.48;8.00;;;20.70;54.80;;;;;;7367312;19;20089;-76
2022/05/10 01:03:54;;;;;;;10.57;7.72;;;20.80;54.80;;;;;;7367788;19;20011;-76
2022/05/10 01:06:28;;;;;;;12.80;8.57;;;20.70;54.80;;;;;;7387353;19;20369;-75
2022/05/10 01:09:02;;;;;;;11.23;7.63;;;20.60;54.90;;;;;;7366040;19;20310;-76
2022/05/10 01:11:39;;;;;;;13.65;7.78;;;20.60;54.90;;;;;;7367382;19;20014;-76
2022/05/10 01:14:13;;;;;;;10.00;7.90;;;20.60;54.70;;;;;;7367376;19;20486;-76
2022/05/10 01:16:44;;;;;;;10.50;7.03;;;20.50;54.80;;;;;;7368419;19;20019;-76
2022/05/10 01:19:15;;;;;;;12.52;7.78;;;20.50;54.80;;;;;;7367401;19;20085;-76
2022/05/10 01:22:08;;;;;;;10.20;7.93;;;20.50;55.00;;;;;;7366099;19;20127;-76
2022/05/10 01:24:52;;;;;;;16.88;8.23;;;20.40;55.30;;;;;;7367254;19;20558;-76
2022/05/10 01:27:36;;;;;;;10.50;8.13;;;20.40;55.40;;;;;;7389564;19;20074;-76
2022/05/10 01:30:12;;;;;;;10.57;8.40;;;20.30;55.50;;;;;;7366032;19;20038;-75
2022/05/10 01:35:36;;;;;;;10.95;8.05;;;20.30;55.60;;;;;;7366987;19;20015;-75
2022/05/10 01:38:09;;;;;;;11.88;8.50;;;20.30;55.70;;;;;;7365600;19;20097;-76
2022/05/10 01:40:41;;;;;;;13.85;9.18;;;20.20;55.70;;;;;;7366595;19;20013;-76
2022/05/10 01:43:15;;;;;;;11.95;8.10;;;20.20;55.60;;;;;;7366377;19;20018;-76
2022/05/10 01:45:51;;;;;;;10.38;8.32;;;20.20;55.50;;;;;;7366606;19;20036;-76
2022/05/10 01:48:24;;;;;;;10.73;8.45;;;20.30;55.60;;;;;;7388301;19;20021;-76
2022/05/10 01:50:58;;;;;;;13.20;9.13;;;20.20;55.60;;;;;;7365609;19;20079;-75
2022/05/10 01:53:32;;;;;;;12.43;8.57;;;20.20;55.80;;;;;;7364114;19;20087;-76
2022/05/10 01:56:04;;;;;;;16.02;9.02;;;20.10;55.90;;;;;;7366809;19;20092;-75
2022/05/10 01:58:35;;;;;;;10.27;8.15;;;20.10;55.90;;;;;;7366168;19;20070;-75
2022/05/10 02:01:08;;;;;;;11.10;8.98;;;20.00;55.80;;;;;;7365214;19;20014;-76
2022/05/10 02:03:42;;;;;;;10.88;8.48;;;20.00;55.90;;;;;;7367147;19;20011;-75
2022/05/10 02:06:19;;;;;;;14.05;8.77;;;20.00;56.10;;;;;;7387065;19;20049;-75
2022/05/10 02:08:54;;;;;;;10.10;8.55;;;20.00;56.30;;;;;;7364140;19;20702;-74
2022/05/10 02:11:23;;;;;;;12.98;8.52;;;19.90;56.20;;;;;;7365373;19;20039;-74
2022/05/10 02:13:57;;;;;;;11.20;8.43;;;19.90;56.20;;;;;;7365627;19;20474;-75
2022/05/10 02:16:35;;;;;;;10.50;8.85;;;19.90;56.30;;;;;;7364170;19;20015;-75
2022/05/10 02:19:09;;;;;;;10.63;8.38;;;19.90;56.20;;;;;;7365445;19;20430;-76
2022/05/10 02:21:42;;;;;;;10.70;8.80;;;19.90;56.10;;;;;;7366486;19;20027;-76
2022/05/10 02:24:17;;;;;;;10.88;9.30;;;20.00;56.10;;;;;;7385420;19;20018;-76
2022/05/10 02:26:51;;;;;;;13.80;9.00;;;20.00;56.10;;;;;;7364726;19;20086;-75
2022/05/10 02:29:24;;;;;;;9.50;7.65;;;19.90;56.10;;;;;;7364289;19;20086;-76
2022/05/10 02:34:45;;;;;;;10.77;8.13;;;19.90;56.10;;;;;;7367325;19;20123;-75
2022/05/10 02:37:14;;;;;;;10.75;8.38;;;19.90;56.20;;;;;;7365644;19;20611;-76
2022/05/10 02:39:43;;;;;;;10.88;8.05;;;19.90;56.10;;;;;;7368503;19;20130;-75
2022/05/10 02:42:15;;;;;;;11.27;7.80;;;20.00;56.10;;;;;;7392389;19;20109;-75
2022/05/10 02:44:44;;;;;;;11.88;8.43;;;20.00;56.20;;;;;;7372282;19;20549;-75
2022/05/10 02:47:16;;;;;;;10.95;8.40;;;20.00;56.30;;;;;;7372623;19;20123;-75
2022/05/10 02:49:44;;;;;;;;;;;20.00;56.30;;;;;;7370494;19;20044;-75
2022/05/10 02:52:13;;;;;;;10.25;7.85;;;20.00;56.40;;;;;;7369164;19;19974;-75
2022/05/10 02:54:42;;;;;;;16.05;8.48;;;20.00;56.30;;;;;;7371619;19;20022;-75
2022/05/10 02:57:11;;;;;;;10.75;7.93;;;20.00;56.30;;;;;;7393003;19;20070;-75
2022/05/10 02:59:42;;;;;;;11.50;8.93;;;20.00;56.30;;;;;;7370823;19;20056;-75
2022/05/10 03:02:19;;;;;;;10.55;8.10;;;20.10;56.30;;;;;;7371579;19;20517;-74
2022/05/10 03:04:56;;;;;;;10.10;8.88;;;20.10;56.40;;;;;;7370140;19;20105;-75
2022/05/10 03:07:25;;;;;;;11.05;8.60;;;20.10;56.30;;;;;;7371605;19;20011;-75
2022/05/10 03:09:53;;;;;;;11.18;8.05;;;20.10;56.30;;;;;;7368541;19;20018;-75
2022/05/10 03:12:22;;;;;;;9.85;8.30;;;20.10;56.30;;;;;;7391016;19;20035;-75
2022/05/10 03:14:51;;;;;;;11.18;8.27;;;20.10;56.30;;;;;;7371978;19;20017;-75
2022/05/10 03:17:23;;;;;;;10.32;8.68;;;20.10;56.40;;;;;;7370332;19;20009;-75
2022/05/10 03:19:51;;;;;;;10.68;8.90;;;20.10;56.40;;;;;;7371188;19;20078;-75
2022/05/10 03:22:20;;;;;;;10.55;8.30;;;20.10;56.40;;;;;;7371941;19;20006;-75
2022/05/10 03:24:49;;;;;;;11.63;8.73;;;20.00;56.50;;;;;;7371079;19;20021;-75
2022/05/10 03:27:19;;;;;;;9.00;8.07;;;20.00;56.60;;;;;;7390569;19;20015;-75
2022/05/10 03:29:47;;;;;;;13.25;8.73;;;20.00;56.70;;;;;;7368778;19;20029;-76
2022/05/10 03:32:16;;;;;;;9.15;8.02;;;20.00;56.70;;;;;;7371287;19;20413;-75
2022/05/10 03:34:57;;;;;;;12.07;8.90;;;20.00;56.80;;;;;;7370519;19;20405;-75
2022/05/10 03:37:28;;;;;;;13.52;8.55;;;20.00;56.80;;;;;;7369110;19;20018;-76
2022/05/10 03:39:56;;;;;;;11.88;8.23;;;20.00;56.70;;;;;;7369415;19;20579;-76
2022/05/10 03:42:26;;;;;;;9.98;7.93;;;20.00;56.70;;;;;;7374309;19;20021;-76
2022/05/10 03:44:55;;;;;;;11.95;10.05;;;20.00;56.80;;;;;;7389802;19;20762;-76
2022/05/10 03:47:26;;;;;;;11.65;8.50;;;20.00;56.80;;;;;;7369509;19;20014;-76
2022/05/10 03:49:58;;;;;;;11.38;8.75;;;20.00;57.50;;;;;;7369214;19;20011;-76
2022/05/10 03:52:27;;;;;;;10.43;8.27;;;19.90;57.00;;;;;;7364524;19;20605;-76
2022/05/10 03:54:56;;;;;;;13.63;9.00;;;19.90;57.10;;;;;;7367770;19;20014;-76
2022/05/10 03:57:24;;;;;;;12.45;8.57;;;19.90;57.10;;;;;;7381396;19;20019;-76
2022/05/10 03:59:53;;;;;;;13.55;8.77;;;19.90;57.20;;;;;;7391384;19;20054;-75
2022/05/10 04:02:22;;;;;;;15.05;9.30;;;19.90;57.10;;;;;;7369117;19;20451;-76
2022/05/10 04:04:50;;;;;;;12.43;8.98;;;19.90;57.20;;;;;;7368248;19;20098;-76
2022/05/10 04:07:22;;;;;;;12.55;9.75;;;19.90;57.20;;;;;;7369135;19;20014;-76
2022/05/10 04:09:50;;;;;;;13.23;9.23;;;19.90;57.20;;;;;;7369319;19;20010;-76
2022/05/10 04:12:19;;;;;;;11.23;8.73;;;19.80;57.20;;;;;;7390552;19;20019;-76
2022/05/10 04:14:48;;;;;;;17.52;9.25;;;19.80;57.30;;;;;;7368157;19;20015;-76
2022/05/10 04:17:17;;;;;;;10.52;8.98;;;19.80;57.30;;;;;;7368218;19;20435;-76
2022/05/10 04:19:45;;;;;;;15.82;9.52;;;19.80;57.50;;;;;;7366914;19;20139;-75
2022/05/10 04:22:14;;;;;;;10.80;8.93;;;19.80;57.60;;;;;;7367656;19;20613;-75
2022/05/10 04:24:45;;;;;;;10.30;8.07;;;19.80;57.60;;;;;;7369633;19;20086;-76
2022/05/10 04:27:14;;;;;;;12.02;9.27;;;19.80;57.50;;;;;;7389660;19;20110;-74
2022/05/10 04:29:43;;;;;;;15.43;9.25;;;19.90;57.50;;;;;;7366483;19;20026;-76
2022/05/10 04:32:12;;;;;;;11.18;8.70;;;19.90;57.50;;;;;;7367070;19;20032;-76
2022/05/10 04:34:40;;;;;;;12.77;8.95;;;19.90;57.40;;;;;;7365551;19;20021;-75
2022/05/10 04:37:09;;;;;;;10.60;8.38;;;20.00;57.40;;;;;;7367566;19;20010;-76
2022/05/10 04:42:21;;;;;;;10.52;8.77;;;20.10;57.30;;;;;;7390955;19;20029;-76
2022/05/10 04:44:50;;;;;;;18.23;9.85;;;20.10;57.30;;;;;;7368064;19;20099;-76
2022/05/10 04:47:19;;;;;;;16.70;9.02;;;20.10;57.90;;;;;;7367646;19;20011;-76
2022/05/10 04:49:48;;;;;;;11.88;9.32;;;20.10;57.20;;;;;;7368477;19;20083;-76
2022/05/10 04:52:16;;;;;;;16.05;9.10;;;20.10;57.30;;;;;;7366632;19;20806;-76
2022/05/10 04:54:45;;;;;;;11.25;8.55;;;20.10;57.40;;;;;;7367109;19;20021;-76
2022/05/10 04:57:14;;;;;;;17.65;9.40;;;20.20;57.40;;;;;;7388666;19;20631;-75
2022/05/10 04:59:45;;;;;;;24.90;19.85;;;20.20;57.30;;;;;;7364567;19;20109;-75
2022/05/10 05:02:14;;;;;;;16.70;11.85;;;20.20;57.30;;;;;;7367488;19;20034;-75
2022/05/10 05:04:43;;;;;;;18.10;12.95;;;20.20;57.60;;;;;;7368996;19;20485;-75
2022/05/10 05:07:11;;;;;;;17.67;12.90;;;20.10;57.60;;;;;;7367732;19;20400;-75
2022/05/10 05:09:40;;;;;;;15.93;10.18;;;20.10;57.70;;;;;;7365642;19;20569;-76
2022/05/10 05:12:10;;;;;;;13.48;8.77;;;20.10;57.80;;;;;;7387271;19;20010;-76
2022/05/10 05:14:38;;;;;;;19.02;10.65;;;20.10;57.80;;;;;;7366527;19;20031;-75
2022/05/10 05:17:10;;;;;;;12.95;8.95;;;20.10;57.90;;;;;;7367617;19;20109;-76
2022/05/10 05:19:38;;;;;;;;;;;20.10;58.20;;;;;;7366455;19;20010;-76
2022/05/10 05:22:07;;;;;;;15.23;8.52;;;20.20;58.20;;;;;;7366420;19;19987;-76
2022/05/10 05:24:36;;;;;;;12.48;9.63;;;20.20;58.00;;;;;;7365389;19;20014;-76
2022/05/10 05:27:05;;;;;;;12.10;8.88;;;20.20;58.30;;;;;;7389776;19;20024;-75
2022/05/10 05:29:34;;;;;;;28.35;19.92;;;20.20;58.20;;;;;;7365814;19;20014;-75
2022/05/10 05:32:07;;;;;;;18.90;10.38;;;20.20;58.20;;;;;;7366424;19;20022;-76
2022/05/10 05:34:39;;;;;;;14.50;9.13;;;20.20;58.10;;;;;;7367111;19;20732;-77
2022/05/10 05:39:49;;;;;;;17.55;9.02;;;20.30;58.10;;;;;;7367427;19;20018;-77
2022/05/10 05:42:18;;;;;;;13.73;9.20;;;20.30;58.00;;;;;;7386506;19;20110;-77
2022/05/10 05:44:47;;;;;;;15.10;9.25;;;20.30;58.00;;;;;;7365740;19;20431;-75
2022/05/10 05:47:16;;;;;;;20.15;9.85;;;20.40;58.10;;;;;;7364016;19;20598;-75
2022/05/10 05:49:47;;;;;;;24.83;11.02;;;20.40;58.20;;;;;;7364993;19;20622;-76
2022/05/10 05:52:17;;;;;;;;;;;20.40;58.30;;;;;;7367470;19;20052;-75
2022/05/10 05:54:46;;;;;;;19.48;11.45;;;20.50;58.20;;;;;;7363839;19;19970;-77
2022/05/10 05:57:15;;;;;;;21.85;9.85;;;20.50;58.00;;;;;;7390083;19;20450;-77
2022/05/10 05:59:44;;;;;;;17.08;9.23;;;20.60;58.00;;;;;;7366123;19;20068;-77
2022/05/10 06:02:15;;;;;;;15.15;9.25;;;20.60;58.10;;;;;;7366106;19;20423;-77
2022/05/10 06:04:44;;;;;;;21.48;9.27;;;20.70;58.10;;;;;;7365941;19;20074;-77
2022/05/10 06:07:16;;;;;;;18.65;9.15;;;20.80;57.90;;;;;;7367542;19;20007;-77
2022/05/10 06:09:46;;;;;;;21.05;9.05;;;20.80;57.70;;;;;;7364111;19;20023;-77
2022/05/10 06:12:18;;;;;;;18.45;9.45;;;20.90;57.70;;;;;;7385905;19;20018;-77
2022/05/10 06:14:48;;;;;;;25.33;15.20;;;20.90;58.10;;;;;;7368530;19;20010;-77
2022/05/10 06:17:18;;;;;;;23.15;11.63;;;20.90;57.90;;;;;;7373017;19;20029;-77
2022/05/10 06:19:49;;;;;;;14.45;8.73;;;21.00;57.90;;;;;;7373943;19;20100;-77
2022/05/10 06:22:20;;;;;;;14.82;9.70;;;21.00;57.90;;;;;;7373866;19;20018;-77
2022/05/10 06:24:49;;;;;;;22.52;9.13;;;21.10;58.00;;;;;;7368998;19;20014;-77
2022/05/10 06:27:19;;;;;;;17.08;8.75;;;21.20;58.00;;;;;;7393303;19;20818;-77
2022/05/10 06:29:49;;;;;;;15.00;8.90;;;21.20;58.10;;;;;;7370923;19;20103;-77
2022/05/10 06:32:24;;;;;;;16.20;9.20;;;21.30;58.20;;;;;;7371743;19;20484;-79
2022/05/10 06:34:54;;;;;;;13.65;9.32;;;21.30;58.10;;;;;;7373604;19;20031;-77
2022/05/10 06:40:09;;;;;;;15.15;9.00;;;21.50;58.10;;;;;;7372820;19;20110;-79
2022/05/10 06:42:38;;;;;;;12.80;8.88;;;21.50;58.10;;;;;;7369357;19;20095;-77
2022/05/10 06:45:10;;;;;;;16.35;8.70;;;21.60;58.10;;;;;;7392481;19;20091;-77
2022/05/10 06:47:40;;;;;;;15.70;8.30;;;21.70;58.10;;;;;;7371754;19;20034;-76
2022/05/10 06:50:12;;;;;;;19.60;7.70;;;21.80;57.80;;;;;;7369254;19;20017;-77
2022/05/10 06:52:43;;;;;;;11.52;7.22;;;21.90;57.50;;;;;;7372704;19;20082;-77
2022/05/10 06:55:13;;;;;;;10.35;7.25;;;21.90;56.90;;;;;;7371244;19;20042;-77
2022/05/10 06:57:42;;;;;;;10.93;6.13;;;22.00;56.40;;;;;;7372413;19;20090;-78
2022/05/10 07:00:13;;;;;;;9.05;6.63;;;22.10;55.90;;;;;;7392034;19;20481;-78
2022/05/10 07:02:42;;;;;;;;;;;22.20;55.60;;;;;;7372100;19;20680;-78
2022/05/10 07:05:12;;;;;;;11.20;6.07;;;22.30;55.50;;;;;;7370439;19;19914;-78
2022/05/10 07:07:43;;;;;;;6.93;5.50;;;22.40;55.30;;;;;;7371030;19;20379;-77
2022/05/10 07:10:12;;;;;;;;;;;22.40;55.00;;;;;;7369140;19;20017;-77
2022/05/10 07:12:43;;;;;;;9.57;6.10;;;22.50;54.70;;;;;;7373218;19;19929;-79
2022/05/10 07:15:15;;;;;;;10.10;6.03;;;22.50;53.90;;;;;;7392837;19;20014;-77
2022/05/10 07:17:44;;;;;;;9.15;5.10;;;22.60;54.10;;;;;;7370868;19;20097;-77
2022/05/10 07:20:17;;;;;;;16.00;6.25;;;22.60;54.10;;;;;;7370111;19;20020;-77
2022/05/10 07:22:49;;;;;;;10.90;5.57;;;22.60;54.30;;;;;;7370028;19;20098;-78
2022/05/10 07:25:21;;;;;;;7.50;5.15;;;22.70;54.00;;;;;;7368825;19;20023;-78
2022/05/10 07:27:52;;;;;;;9.05;5.38;;;22.70;53.30;;;;;;7369504;19;20768;-78
2022/05/10 07:30:23;;;;;;;7.50;4.97;;;22.70;52.70;;;;;;7392864;19;20010;-78
2022/05/10 07:32:52;;;;;;;13.20;5.50;;;22.80;52.80;;;;;;7371345;19;20028;-78
2022/05/10 07:36:23;;;;;;;9.57;5.50;;;22.80;52.60;;;;;;7370615;19;20007;-78
2022/05/10 07:38:17;;;;;;;8.32;5.50;;;22.80;52.20;;;;;;7370139;19;20010;-78
2022/05/10 07:40:47;;;;;;;6.13;4.88;;;22.80;52.80;;;;;;7370493;19;20010;-78
2022/05/10 07:43:16;;;;;;;8.63;5.03;;;22.80;52.80;;;;;;7369624;19;20021;-78
2022/05/10 07:45:47;;;;;;;6.38;5.00;;;22.70;52.40;;;;;;7370467;19;20020;-78
2022/05/10 07:48:18;;;;;;;7.90;5.00;;;22.70;51.80;;;;;;7391836;19;20475;-78
2022/05/10 07:50:47;;;;;;;8.75;4.82;;;22.60;51.70;;;;;;7369639;19;20007;-78
2022/05/10 07:53:21;;;;;;;9.88;5.20;;;22.60;51.70;;;;;;7369513;19;20006;-78
2022/05/10 07:55:50;;;;;;;6.15;4.57;;;22.50;51.80;;;;;;7369911;19;20035;-77
2022/05/10 07:58:20;;;;;;;8.80;4.90;;;22.50;51.90;;;;;;7370269;19;20015;-77
2022/05/10 08:00:49;;;;;;;6.97;4.78;;;22.50;52.10;;;;;;7368425;19;20027;-77
2022/05/10 08:03:21;;;;;;;9.63;5.55;;;22.60;52.10;;;;;;7387192;19;20519;-78
2022/05/10 08:05:54;;;;;;;10.40;5.03;;;22.60;52.10;;;;;;7369358;19;20007;-77
2022/05/10 08:08:27;;;;;;;5.68;4.68;;;22.70;52.20;;;;;;7369526;19;20653;-78
2022/05/10 08:10:57;;;;;;;7.40;5.18;;;22.70;52.20;;;;;;7367695;19;20060;-78
2022/05/10 08:13:28;;;;;;;6.93;5.03;;;22.80;52.20;;;;;;7367525;19;20011;-78
2022/05/10 08:15:57;;;;;;;7.83;4.77;;;22.90;52.10;;;;;;7369351;19;20035;-77
2022/05/10 08:18:27;;;;;;;15.27;5.35;;;22.90;52.00;;;;;;7369442;19;20043;-78
2022/05/10 08:21:02;;;;;;;7.85;5.07;;;22.90;52.00;;;;;;7390097;19;20569;-78
2022/05/10 08:23:36;;;;;;;7.35;5.15;;;22.90;52.20;;;;;;7368534;19;20465;-81
2022/05/10 08:26:06;;;;;;;15.13;11.20;;;22.90;52.30;;;;;;7368333;19;20014;-77
2022/05/10 08:28:36;;;;;;;33.40;23.08;;;22.90;51.90;;;;;;7370055;19;20026;-77
2022/05/10 08:31:07;;;;;;;32.38;19.80;;;22.70;52.30;;;;;;7367037;19;20781;-78
2022/05/10 08:33:39;;;;;;;16.30;9.13;;;22.80;52.70;;;;;;7363161;19;20040;-79
2022/05/10 08:36:11;;;;;;;13.68;9.52;;;22.80;52.90;;;;;;7390358;19;20030;-79
2022/05/10 08:38:42;;;;;;;9.50;6.55;;;22.80;52.80;;;;;;7366262;19;20764;-78
2022/05/10 08:41:15;;;;;;;12.60;5.65;;;22.80;52.50;;;;;;7367276;19;20015;-78
2022/05/10 08:43:47;;;;;;;7.38;5.40;;;22.80;52.50;;;;;;7368558;19;20010;-78
2022/05/10 08:46:19;;;;;;;8.82;4.88;;;22.90;52.30;;;;;;7369163;19;20041;-79
2022/05/10 08:48:53;;;;;;;9.88;4.93;;;22.90;52.80;;;;;;7368668;19;20022;-79
2022/05/10 08:51:22;;;;;;;13.38;4.65;;;23.00;52.80;;;;;;7387057;19;20028;-78
2022/05/10 08:53:54;;;;;;;5.50;4.50;;;23.10;52.30;;;;;;7365863;19;20019;-79
2022/05/10 08:56:33;;;;;;;11.70;5.03;;;23.20;52.20;;;;;;7368209;19;20018;-78
2022/05/10 08:59:10;;;;;;;6.18;4.82;;;23.20;51.80;;;;;;7368209;19;20539;-80
2022/05/10 09:01:48;;;;;;;8.13;4.72;;;23.20;51.80;;;;;;7370605;19;20320;-80
2022/05/10 09:04:51;;;;;;;9.52;4.82;;;23.30;51.00;;;;;;7369917;19;20047;-79
2022/05/10 09:07:38;;;;;;;5.95;4.95;;;23.30;51.30;;;;;;7367756;19;20412;-79
2022/05/10 09:10:15;;;;;;;8.38;4.93;;;23.30;51.10;;;;;;7368633;19;20414;-78
2022/05/10 09:12:52;;;;;;;9.95;4.78;;;23.40;51.50;;;;;;7370979;19;20018;-80
2022/05/10 09:15:21;;;;;;;5.72;4.90;;;23.50;51.10;;;;;;7389461;19;20025;-78
2022/05/10 09:17:50;;;;;;;7.70;4.90;;;23.60;51.10;;;;;;7367609;19;20483;-78
2022/05/10 09:20:19;;;;;;;5.93;4.65;;;23.50;50.50;;;;;;7369142;19;20018;-79
2022/05/10 09:23:21;;;;;;;7.88;5.28;;;23.60;49.90;;;;;;7368454;19;20090;-79
2022/05/10 09:25:57;;;;;;;7.75;4.40;;;23.70;50.00;;;;;;7366532;19;20011;-79
2022/05/10 09:28:32;;;;;;;8.25;4.85;;;23.70;49.40;;;;;;7368673;19;20011;-79
2022/05/10 09:36:55;;;;;;;13.70;8.68;;;23.90;48.40;;;;;;7368781;19;20030;-76
2022/05/10 09:39:34;;;;;;;38.17;27.02;;;23.90;48.10;;;;;;7387120;19;20021;-76
2022/05/10 09:42:06;;;;;;;20.30;10.43;;;24.00;47.80;;;;;;7366498;19;20014;-77
2022/05/10 09:44:35;;;;;;;11.63;5.13;;;24.00;47.10;;;;;;7365493;19;20018;-78
2022/05/10 09:47:17;;;;;;;10.55;4.60;;;24.00;47.90;;;;;;7365362;19;20047;-77
2022/05/10 09:49:46;;;;;;;7.93;4.57;;;24.10;47.80;;;;;;7362575;19;20007;-76
2022/05/10 09:52:22;;;;;;;10.80;4.72;;;24.10;47.20;;;;;;7366172;19;20011;-76
2022/05/10 09:54:53;;;;;;;8.30;4.43;;;24.00;47.40;;;;;;7365201;19;20024;-77
2022/05/10 09:57:35;;;;;;;17.15;4.43;;;24.00;47.60;;;;;;7389378;19;20093;-75
2022/05/10 10:00:06;;;;;;;6.40;4.55;;;24.00;47.70;;;;;;7366162;19;20024;-75
2022/05/10 10:02:37;;;;;;;10.95;4.38;;;23.90;48.10;;;;;;7366308;19;20010;-79
2022/05/10 10:05:20;;;;;;;;;;;24.10;47.70;;;;;;7363527;19;20010;-76
2022/05/10 10:07:53;;;;;;;9.52;4.32;;;24.30;47.60;;;;;;7364188;19;19914;-76
2022/05/10 10:10:27;;;;;;;7.03;4.15;;;24.30;47.70;;;;;;7362838;19;20018;-76
2022/05/10 10:13:00;;;;;;;8.70;4.20;;;24.30;47.10;;;;;;7366395;19;20079;-76
2022/05/10 10:15:35;;;;;;;6.28;4.25;;;24.40;47.80;;;;;;7364774;19;20035;-76
2022/05/10 10:18:08;;;;;;;10.25;3.75;;;24.30;46.70;;;;;;7386013;19;20018;-76
2022/05/10 10:20:41;;;;;;;7.63;4.20;;;24.30;45.80;;;;;;7365335;19;20014;-74
2022/05/10 10:23:23;;;;;;;5.50;3.88;;;24.30;45.70;;;;;;7360667;19;20532;-74
2022/05/10 10:25:55;;;;;;;5.28;3.95;;;24.50;45.90;;;;;;7364897;19;20060;-75
2022/05/10 10:28:31;;;;;;;4.53;3.65;;;24.50;45.10;;;;;;7365290;19;20520;-76
2022/05/10 10:31:06;;;;;;;6.40;3.70;;;24.70;45.20;;;;;;7366005;19;20522;-76
2022/05/10 10:33:43;;;;;;;4.38;3.38;;;24.90;45.30;;;;;;7364469;19;20382;-76
2022/05/10 10:36:19;;;;;;;9.07;3.90;;;24.90;44.80;;;;;;7387582;19;20385;-76
2022/05/10 10:38:56;;;;;;;4.65;3.20;;;25.00;44.60;;;;;;7364927;19;20078;-75
2022/05/10 10:41:32;;;;;;;5.70;3.42;;;25.00;43.50;;;;;;7364091;19;20074;-76
2022/05/10 10:44:10;;;;;;;9.77;3.80;;;24.80;44.30;;;;;;7364112;19;20329;-76
2022/05/10 10:46:44;;;;;;;3.97;3.33;;;24.90;44.70;;;;;;7362991;19;20006;-76
2022/05/10 10:49:16;;;;;;;6.97;3.70;;;24.90;45.00;;;;;;7365320;19;20017;-76
2022/05/10 10:51:44;;;;;;;9.77;3.50;;;24.90;44.00;;;;;;7364778;19;20024;-76
2022/05/10 10:54:19;;;;;;;5.72;3.70;;;24.80;44.00;;;;;;7386322;19;20027;-76
2022/05/10 10:57:13;;;;;;;11.55;3.70;;;24.90;44.30;;;;;;7363996;19;20011;-77
2022/05/10 11:00:11;;;;;;;7.93;3.70;;;24.90;44.20;;;;;;7363263;19;20016;-76
2022/05/10 11:02:57;;;;;;;8.00;3.33;;;24.90;43.80;;;;;;7370568;19;20010;-76
2022/05/10 11:06:10;;;;;;;5.15;3.45;;;24.80;43.90;;;;;;7370464;19;20765;-75
2022/05/10 11:08:55;;;;;;;3.58;3.15;;;24.90;44.00;;;;;;7369392;19;20550;-76
2022/05/10 11:11:32;;;;;;;6.28;3.45;;;25.10;44.10;;;;;;7368254;19;20010;-75
2022/05/10 11:14:11;;;;;;;9.20;3.55;;;25.20;43.60;;;;;;7368497;19;20410;-75
2022/05/10 11:16:52;;;;;;;5.63;3.60;;;25.20;43.90;;;;;;7365729;19;20017;-74
2022/05/10 11:19:52;;;;;;;7.95;3.10;;;25.30;43.30;;;;;;7366944;19;20010;-76
2022/05/10 11:22:33;;;;;;;7.00;3.03;;;25.40;43.50;;;;;;7366447;19;20364;-75
2022/05/10 11:25:13;;;;;;;8.20;3.30;;;25.40;42.40;;;;;;7367488;19;20014;-76
2022/05/10 11:27:58;;;;;;;3.85;3.40;;;25.60;42.90;;;;;;7368572;19;20022;-75
2022/05/10 11:30:33;;;;;;;9.35;3.10;;;25.70;42.90;;;;;;7368022;19;20022;-76
2022/05/10 11:33:25;;;;;;;4.95;3.10;;;25.80;42.60;;;;;;7387301;19;20018;-75
2022/05/10 11:36:15;;;;;;;6.68;3.00;;;25.90;42.00;;;;;;7366680;19;20192;-76
2022/05/10 11:39:12;;;;;;;7.85;3.08;;;26.00;41.80;;;;;;7367348;19;20007;-77
2022/05/10 11:41:49;;;;;;;11.75;3.15;;;26.20;40.90;;;;;;7366476;19;20472;-82
2022/05/10 11:44:45;;;;;;;4.88;2.63;;;26.30;40.90;;;;;;7367999;19;20011;-81
2022/05/10 11:47:45;;;;;;;7.15;3.03;;;26.30;40.60;;;;;;7373040;19;20013;-81
2022/05/10 11:54:01;;;;;;;5.30;3.35;;;26.60;40.50;;;;;;7369514;19;20021;-82
2022/05/10 11:56:37;;;;;;;5.85;2.88;;;26.60;40.60;;;;;;7368320;19;20053;-83
2022/05/10 11:59:07;;;;;;;5.00;2.90;;;26.60;40.40;;;;;;7371956;19;20011;-83
2022/05/10 12:01:45;;;;;;;5.15;3.40;;;26.60;40.30;;;;;;7371331;19;20014;-83
2022/05/10 12:04:37;;;;;;;7.60;2.88;;;26.50;40.30;;;;;;7377532;19;20026;-83
2022/05/10 12:07:34;;;;;;;3.75;2.78;;;26.60;40.30;;;;;;7390130;19;20018;-83
2022/05/10 12:10:08;;;;;;;4.72;3.42;;;26.30;40.90;;;;;;7388938;19;20040;-83
2022/05/10 12:12:58;;;;;;;3.70;2.80;;;26.30;41.30;;;;;;7384006;19;20045;-83
2022/05/10 12:21:26;;;;;;;5.82;3.15;;;26.30;40.70;;;;;;7377784;19;20429;-81
2022/05/10 12:24:09;;;;;;;7.57;2.85;;;26.40;41.30;;;;;;7375729;19;20183;-84
2022/05/10 12:26:46;;;;;;;175.32;151.43;;;26.30;41.10;;;;;;7375134;19;20010;-82
2022/05/10 12:29:57;;;;;;;13.60;8.80;;;26.40;41.70;;;;;;7370552;19;20019;-82
2022/05/10 12:32:56;;;;;;;3.42;2.80;;;26.50;41.50;;;;;;7368085;19;20045;-78
2022/05/10 12:36:07;;;;;;;5.43;3.17;;;26.60;41.30;;;;;;7367527;19;20018;-81
2022/05/10 12:38:46;;;;;;;5.38;2.78;;;26.60;41.20;;;;;;7368218;19;20135;-79
2022/05/10 12:41:43;;;;;;;6.55;3.35;;;26.70;40.90;;;;;;7367190;19;20018;-80
2022/05/10 12:44:50;;;;;;;4.90;2.88;;;26.80;40.60;;;;;;7369087;19;20053;-80
2022/05/10 12:47:44;;;;;;;3.60;2.72;;;27.00;39.50;;;;;;7367365;19;20018;-79
2022/05/10 12:50:33;;;;;;;3.35;2.70;;;27.00;40.20;;;;;;7366355;19;20031;-80
2022/05/10 12:53:02;;;;;;;7.25;3.10;;;27.00;40.20;;;;;;7367419;19;20014;-80
2022/05/10 12:55:35;;;;;;;4.05;3.00;;;27.00;39.80;;;;;;7366727;19;20006;-80
2022/05/10 12:58:10;;;;;;;10.15;3.15;;;27.10;39.50;;;;;;7368243;19;20488;-80
2022/05/10 13:00:44;;;;;;;6.28;2.50;;;27.10;39.80;;;;;;7369190;19;20111;-79
2022/05/10 13:03:17;;;;;;;11.10;3.17;;;27.20;40.20;;;;;;7389606;19;20025;-80
2022/05/10 13:05:59;;;;;;;5.50;3.35;;;27.20;39.30;;;;;;7368194;19;20078;-80
2022/05/10 13:08:55;;;;;;;5.10;2.90;;;27.30;39.70;;;;;;7366716;19;20455;-81
2022/05/10 13:11:27;;;;;;;3.75;2.58;;;27.20;39.10;;;;;;7369733;19;20125;-81
2022/05/10 13:14:03;;;;;;;5.22;3.15;;;27.30;39.40;;;;;;7369276;19;20098;-80
2022/05/10 13:16:32;;;;;;;9.90;2.90;;;27.30;39.10;;;;;;7372636;19;20103;-80
2022/05/10 13:19:02;;;;;;;5.88;3.30;;;27.30;39.50;;;;;;7382084;19;20011;-78
2022/05/10 13:21:32;;;;;;;3.13;2.53;;;27.30;39.30;;;;;;7375824;19;20027;-82
2022/05/10 13:24:02;;;;;;;5.40;2.70;;;27.40;38.10;;;;;;7389858;19;20046;-80
2022/05/10 13:26:31;;;;;;;3.88;2.35;;;27.40;37.70;;;;;;7370326;19;20053;-81
2022/05/10 13:29:03;;;;;;;19.90;3.15;;;27.40;37.70;;;;;;7370417;19;20020;-82
2022/05/10 13:31:37;;;;;;;4.10;2.80;;;27.30;38.00;;;;;;7369771;19;20007;-80
2022/05/10 13:34:14;;;;;;;8.55;2.70;;;27.30;37.90;;;;;;7370206;19;20014;-81
2022/05/10 13:36:48;;;;;;;5.72;2.65;;;27.40;38.10;;;;;;7368395;19;20022;-80
2022/05/10 13:39:31;;;;;;;4.78;2.50;;;27.60;38.30;;;;;;7391200;19;20770;-80
2022/05/10 13:42:02;;;;;;;5.50;2.67;;;27.70;38.20;;;;;;7369767;19;20018;-80
2022/05/10 13:44:34;;;;;;;;;;;27.80;38.40;;;;;;7369082;19;20015;-80
2022/05/10 13:47:06;;;;;;;5.22;2.83;;;27.80;38.40;;;;;;7368731;19;19972;-81